Terminal Aerodrome Forecast
Issued by NWS

Home | Current Version | Previous Version | Text Only | Print | Product List | Glossary On
Versions: 1 2 3 4 5 6 7 8 9 10 11 12 13 14 15 16 17 18 19
000
FTUS46 KLOX 231721
TAFVNY
TAF
KVNY 231721Z 2318/2418 00000KT 6SM HZ SKC
     FM231900 16008KT P6SM SCT150
     FM232100 14006KT P6SM SCT150
     FM240300 VRB03KT P6SM SKC
     FM240800 11006KT 5SM BR BKN007
     FM241100 VRB03KT 6SM BR OVC011=

USA.gov is the U.S. government's official web portal to all federal, state and local government web resources and services.